Time;durP1;ratioP1;P1;durP2;ratioP2;P2;SDS_P1;SDS_P2;PMS_P1;PMS_P2;Temp;Humidity;BMP_temperature;BMP_pressure;BME280_temperature;BME280_humidity;BME280_pressure;Samples;Min_cycle;Max_cycle;Signal;HPM_P1;HPM_P2
2023/06/24 00:00:56;;;;;;;15.45;8.95;;;;;;;26.13;51.54;95208.19;5130059;27;20060;-80
2023/06/24 00:03:21;;;;;;;17.77;10.68;;;;;;;25.71;51.56;95137.84;5104117;27;20036;-80
2023/06/24 00:05:49;;;;;;;10.80;9.45;;;;;;;26.20;51.63;95221.06;5125771;27;20023;-80
2023/06/24 00:08:22;;;;;;;16.85;9.73;;;;;;;26.31;51.72;95249.19;5120871;27;20057;-80
2023/06/24 00:10:48;;;;;;;12.48;10.38;;;;;;;26.19;51.99;95242.03;5117070;27;20093;-80
2023/06/24 00:13:15;;;;;;;21.00;10.15;;;;;;;26.13;51.98;95235.38;5126764;27;20523;-80
2023/06/24 00:15:43;;;;;;;13.82;9.50;;;;;;;26.18;52.01;95234.25;5122891;27;20421;-80
2023/06/24 00:18:10;;;;;;;13.23;9.80;;;;;;;26.12;51.74;95233.81;5130618;27;20031;-80
2023/06/24 00:20:35;;;;;;;12.15;9.25;;;;;;;26.12;51.80;95231.88;5122967;27;20031;-80
2023/06/24 00:23:01;;;;;;;10.75;9.05;;;;;;;26.12;52.08;95237.31;5113997;27;20027;-79
2023/06/24 00:25:27;;;;;;;12.80;9.15;;;;;;;26.06;52.30;95240.72;5115483;27;20072;-80
2023/06/24 00:27:52;;;;;;;12.48;10.20;;;;;;;26.01;51.95;95222.03;5130519;27;20113;-79
2023/06/24 00:30:18;;;;;;;12.88;10.25;;;;;;;25.77;51.91;95193.41;5111654;27;20042;-79
2023/06/24 00:32:43;;;;;;;14.30;10.15;;;;;;;25.85;51.85;95216.03;5111811;27;20119;-79
2023/06/24 00:35:12;;;;;;;11.23;9.20;;;;;;;26.03;52.06;95239.53;5121629;27;20035;-80
2023/06/24 00:37:38;;;;;;;17.38;10.00;;;;;;;25.96;52.27;95234.00;5129255;27;20046;-79
2023/06/24 00:40:10;;;;;;;15.02;9.65;;;;;;;25.78;52.15;95205.06;5124439;27;20031;-80
2023/06/24 00:42:35;;;;;;;12.65;9.15;;;;;;;25.89;52.43;95225.78;5124373;27;20035;-80
2023/06/24 00:45:03;;;;;;;11.60;9.48;;;;;;;25.86;52.18;95229.22;5128742;27;20027;-79
2023/06/24 00:47:30;;;;;;;14.93;9.60;;;;;;;25.88;52.75;95245.16;5128065;27;20031;-79
2023/06/24 00:49:56;;;;;;;11.63;9.52;;;;;;;25.86;52.78;95234.66;5122867;27;20035;-79
2023/06/24 00:52:22;;;;;;;13.88;9.93;;;;;;;25.71;52.80;95224.75;5109611;27;20028;-79
2023/06/24 00:54:47;;;;;;;14.32;10.05;;;;;;;25.44;52.75;95177.06;5128082;27;20409;-80
2023/06/24 00:57:13;;;;;;;14.77;9.25;;;;;;;25.59;52.66;95204.06;5124156;27;20034;-79
2023/06/24 00:59:40;;;;;;;11.63;9.43;;;;;;;25.58;52.81;95207.91;5130441;27;20394;-80
2023/06/24 01:02:06;;;;;;;13.18;9.27;;;;;;;25.54;52.57;95200.84;5110879;27;20031;-79
2023/06/24 01:04:33;;;;;;;14.50;10.13;;;;;;;25.80;52.68;95227.19;5116163;27;20339;-80
2023/06/24 01:06:59;;;;;;;10.82;9.73;;;;;;;25.68;52.73;95207.28;5119511;27;20508;-79
2023/06/24 01:09:25;;;;;;;12.73;9.65;;;;;;;25.73;52.77;95214.31;5121667;27;20125;-79
2023/06/24 01:11:51;;;;;;;14.05;10.13;;;;;;;25.45;52.79;95165.84;5136948;27;20196;-79
2023/06/24 01:14:19;;;;;;;15.05;9.88;;;;;;;25.65;53.05;95202.56;5113129;27;20533;-79
2023/06/24 01:17:12;;;;;;;14.38;10.48;;;;;;;25.72;53.27;95218.16;5145194;27;20027;-80
2023/06/24 01:19:43;;;;;;;19.25;10.98;;;;;;;25.72;53.14;95218.16;5124360;27;20062;-79
2023/06/24 01:22:24;;;;;;;20.08;9.18;;;;;;;25.69;53.24;95214.28;5127604;27;20220;-79
2023/06/24 01:25:18;;;;;;;12.75;10.20;;;;;;;25.66;53.42;95209.56;5122614;27;20038;-80
2023/06/24 01:28:13;;;;;;;14.15;10.77;;;;;;;25.63;53.29;95217.69;5127006;27;20043;-80
2023/06/24 01:31:10;;;;;;;15.38;10.38;;;;;;;25.30;53.55;95169.50;5100727;27;20460;-79
2023/06/24 01:33:49;;;;;;;12.00;10.43;;;;;;;25.32;53.81;95189.72;5116816;28;20035;-80
2023/06/24 01:36:18;;;;;;;15.82;10.70;;;;;;;25.48;53.70;95213.19;5119413;28;20414;-76
2023/06/24 01:38:48;;;;;;;12.85;11.32;;;;;;;25.46;53.56;95210.84;5121849;28;20080;-77
2023/06/24 01:41:18;;;;;;;16.45;10.57;;;;;;;25.04;53.81;95147.81;5149419;27;20109;-76
2023/06/24 01:43:45;;;;;;;15.50;10.87;;;;;;;25.24;53.93;95196.19;5125212;27;20035;-77
2023/06/24 01:46:13;;;;;;;14.10;10.80;;;;;;;25.39;54.22;95232.47;5128845;27;20039;-76
2023/06/24 01:48:42;;;;;;;17.95;10.55;;;;;;;25.37;54.10;95245.59;5129698;27;20409;-77
2023/06/24 01:51:11;;;;;;;12.60;10.25;;;;;;;25.34;53.86;95249.03;5153195;27;20026;-76
2023/06/24 01:53:48;;;;;;;16.67;11.90;;;;;;;24.97;54.72;95260.50;5135503;27;20037;-77
2023/06/24 01:56:15;;;;;;;14.65;11.10;;;;;;;24.22;57.00;95257.59;5155088;27;20039;-76
2023/06/24 01:58:42;;;;;;;13.82;11.35;;;;;;;23.89;57.51;95230.97;5126923;27;20058;-76
2023/06/24 02:01:08;;;;;;;14.13;10.80;;;;;;;23.76;57.72;95194.34;5120047;27;20031;-76
2023/06/24 02:03:34;;;;;;;14.52;12.15;;;;;;;24.26;57.35;95257.66;5137886;27;20053;-77
2023/06/24 02:06:01;;;;;;;15.82;11.55;;;;;;;24.28;57.49;95261.56;5145965;27;20038;-76
2023/06/24 02:08:30;;;;;;;16.35;12.27;;;;;;;24.31;57.30;95271.72;5134241;27;20037;-77
2023/06/24 02:10:58;;;;;;;16.08;11.60;;;;;;;24.39;57.35;95284.25;5143509;27;20110;-76
2023/06/24 02:13:24;;;;;;;17.50;12.65;;;;;;;24.17;57.56;95244.31;5106814;27;20134;-76
2023/06/24 02:15:51;;;;;;;18.10;11.65;;;;;;;23.94;57.38;95206.34;5103652;27;20034;-76
2023/06/24 02:18:17;;;;;;;15.98;11.68;;;;;;;24.02;57.41;95209.97;5115398;28;20030;-76
2023/06/24 02:20:44;;;;;;;25.83;11.95;;;;;;;24.06;57.82;95218.94;5111460;28;20023;-76
2023/06/24 02:23:12;;;;;;;17.52;12.02;;;;;;;24.29;57.65;95256.94;5098803;28;20134;-77
2023/06/24 02:25:39;;;;;;;15.02;12.05;;;;;;;24.25;57.81;95275.84;5113278;28;20119;-76
2023/06/24 02:28:06;;;;;;;23.88;12.07;;;;;;;23.83;57.98;95197.19;5114626;27;20144;-76
2023/06/24 02:30:34;;;;;;;23.30;12.80;;;;;;;24.01;57.86;95238.97;5115530;27;20532;-77
2023/06/24 02:33:00;;;;;;;21.45;12.25;;;;;;;24.22;57.84;95276.56;5114311;27;20083;-76
2023/06/24 02:35:25;;;;;;;17.20;12.38;;;;;;;23.97;58.22;95248.94;5124897;27;20043;-77
2023/06/24 02:37:51;;;;;;;21.13;13.00;;;;;;;24.15;58.08;95277.19;5112273;27;20125;-77
2023/06/24 02:40:16;;;;;;;20.00;13.98;;;;;;;24.18;58.25;95284.56;5111067;27;20039;-77
2023/06/24 02:42:42;;;;;;;18.48;14.77;;;;;;;24.02;59.37;95299.34;5109319;27;20446;-77
2023/06/24 02:45:08;;;;;;;19.50;13.27;;;;;;;23.65;59.46;95247.53;5098100;28;20053;-77
2023/06/24 02:47:36;;;;;;;20.40;14.60;;;;;;;23.90;59.80;95304.88;5099115;27;20504;-76
2023/06/24 02:50:04;;;;;;;22.80;15.48;;;;;;;24.21;59.64;95308.28;5122237;27;20469;-77
2023/06/24 02:52:30;;;;;;;22.27;16.15;;;;;;;24.19;59.55;95290.78;5115141;28;20027;-77
2023/06/24 02:54:58;;;;;;;21.90;15.05;;;;;;;24.25;59.82;95308.38;5099875;28;20537;-76
2023/06/24 02:57:25;;;;;;;18.10;15.07;;;;;;;24.11;59.70;95292.56;5114268;28;20038;-76
2023/06/24 02:59:51;;;;;;;23.67;15.35;;;;;;;24.30;59.51;95313.50;5114248;27;20032;-77
2023/06/24 03:02:17;;;;;;;21.35;14.25;;;;;;;24.01;59.55;95279.59;5110496;27;20405;-76
2023/06/24 03:04:43;;;;;;;21.55;15.32;;;;;;;24.31;59.61;95328.63;5100447;28;20049;-77
2023/06/24 03:07:10;;;;;;;23.25;14.70;;;;;;;24.10;60.21;95330.88;5123176;27;20019;-76
2023/06/24 03:09:36;;;;;;;22.17;14.73;;;;;;;23.94;60.60;95309.25;5129346;27;20019;-76
2023/06/24 03:12:02;;;;;;;27.35;15.68;;;;;;;23.78;60.71;95276.81;5109026;27;20051;-77
2023/06/24 03:14:27;;;;;;;24.48;15.55;;;;;;;23.80;60.50;95279.94;5085671;28;20508;-76
2023/06/24 03:16:53;;;;;;;20.83;14.15;;;;;;;24.07;60.52;95309.91;5102028;28;20031;-76
2023/06/24 03:19:18;;;;;;;18.73;14.10;;;;;;;24.02;60.01;95302.06;5096234;28;20540;-76
2023/06/24 03:21:44;;;;;;;27.63;14.65;;;;;;;24.17;60.09;95331.81;5102568;27;20083;-77
2023/06/24 03:24:09;;;;;;;22.50;13.93;;;;;;;24.17;60.31;95320.97;5103095;27;20096;-77
2023/06/24 03:26:37;;;;;;;21.50;14.05;;;;;;;24.15;60.58;95325.16;5099173;27;20034;-77
2023/06/24 03:29:03;;;;;;;26.10;14.45;;;;;;;24.02;60.64;95313.69;5112176;28;20474;-76
2023/06/24 03:31:29;;;;;;;22.15;15.20;;;;;;;24.05;60.59;95315.66;5118451;27;20046;-76
2023/06/24 03:33:54;;;;;;;21.95;13.10;;;;;;;24.18;60.72;95343.44;5132638;27;20030;-77
2023/06/24 03:36:20;;;;;;;24.55;14.07;;;;;;;24.07;60.67;95334.28;5131748;27;20429;-76
2023/06/24 03:38:46;;;;;;;22.52;14.88;;;;;;;23.85;60.83;95309.47;5105829;28;20106;-76
2023/06/24 03:41:13;;;;;;;28.48;14.93;;;;;;;24.00;60.94;95329.50;5101632;28;20444;-76
2023/06/24 03:43:39;;;;;;;20.73;14.75;;;;;;;24.14;60.91;95358.81;5085321;27;20034;-76
2023/06/24 03:46:04;;;;;;;21.75;14.52;;;;;;;23.84;60.91;95326.06;5103237;27;20031;-76
2023/06/24 03:48:30;;;;;;;23.67;14.63;;;;;;;24.16;61.09;95360.03;5118796;27;20050;-77
2023/06/24 03:50:56;;;;;;;21.15;16.17;;;;;;;24.17;61.50;95363.53;5116341;27;20059;-76
2023/06/24 03:53:21;;;;;;;27.25;15.80;;;;;;;24.11;61.57;95370.34;5100018;27;20038;-76
2023/06/24 03:55:46;;;;;;;24.02;15.70;;;;;;;24.10;61.17;95349.84;5097334;27;20046;-77
2023/06/24 03:58:13;;;;;;;22.55;15.30;;;;;;;24.09;61.43;95340.91;5112301;27;20032;-77
2023/06/24 04:00:40;;;;;;;35.03;16.38;;;;;;;24.21;61.20;95361.69;5100079;27;20035;-76
2023/06/24 04:03:08;;;;;;;30.17;16.13;;;;;;;24.13;61.23;95346.41;5114472;27;20027;-77
2023/06/24 04:05:34;;;;;;;27.67;16.77;;;;;;;24.09;61.17;95340.13;5112325;27;20498;-77
2023/06/24 04:07:59;;;;;;;21.23;16.60;;;;;;;24.08;61.01;95361.03;5111551;27;20088;-76
2023/06/24 04:10:25;;;;;;;26.70;16.95;;;;;;;24.07;60.80;95345.91;5128989;27;20051;-77
2023/06/24 04:12:50;;;;;;;37.83;17.67;;;;;;;23.98;60.76;95331.00;5114101;27;20041;-76
2023/06/24 04:15:16;;;;;;;27.00;17.85;;;;;;;24.10;60.51;95349.84;5114708;27;20121;-76
2023/06/24 04:17:42;;;;;;;23.75;17.48;;;;;;;23.99;60.62;95327.13;5114299;27;20031;-77
2023/06/24 04:20:09;;;;;;;27.60;17.13;;;;;;;24.05;60.67;95328.41;5095426;27;20378;-77
2023/06/24 04:22:40;;;;;;;25.63;18.02;;;;;;;23.94;60.49;95305.75;5123411;27;20493;-77
2023/06/24 04:25:06;;;;;;;22.38;16.73;;;;;;;24.31;60.39;95347.59;5112110;27;20042;-77
2023/06/24 04:27:33;;;;;;;22.63;16.55;;;;;;;24.34;60.14;95349.56;5125032;27;20516;-77
2023/06/24 04:29:59;;;;;;;25.95;17.23;;;;;;;23.96;60.75;95293.41;5127059;27;20481;-76
2023/06/24 04:32:25;;;;;;;23.13;16.08;;;;;;;24.22;60.76;95303.66;5130561;27;20482;-76
2023/06/24 04:34:50;;;;;;;31.95;16.35;;;;;;;24.26;60.78;95309.16;5131162;27;20083;-77
2023/06/24 04:37:15;;;;;;;24.17;16.70;;;;;;;24.38;60.99;95326.06;5131404;27;20043;-76
2023/06/24 04:39:42;;;;;;;26.33;16.10;;;;;;;24.54;60.86;95345.72;5113893;27;20180;-76
2023/06/24 04:42:08;;;;;;;24.98;17.33;;;;;;;24.60;60.78;95355.13;5133045;27;20023;-77
2023/06/24 04:44:33;;;;;;;24.70;17.08;;;;;;;24.54;60.37;95332.16;5132581;27;20042;-76
2023/06/24 04:46:59;;;;;;;24.38;16.73;;;;;;;24.73;60.37;95346.84;5132283;27;20019;-76
2023/06/24 04:49:24;;;;;;;23.30;15.57;;;;;;;24.71;60.43;95341.00;5131351;27;20603;-77
2023/06/24 04:51:50;;;;;;;27.40;17.60;;;;;;;24.81;60.25;95360.16;5122372;27;20493;-76
2023/06/24 04:54:15;;;;;;;27.42;16.55;;;;;;;24.86;60.22;95361.81;5141219;27;22053;-76
2023/06/24 04:56:41;;;;;;;25.33;17.00;;;;;;;24.90;59.92;95371.59;5122517;27;20027;-76
2023/06/24 04:59:07;;;;;;;26.60;17.35;;;;;;;24.94;59.32;95358.91;5131701;27;20071;-76
2023/06/24 05:01:32;;;;;;;23.70;16.73;;;;;;;24.94;59.30;95364.34;5132564;27;20084;-76
2023/06/24 05:03:57;;;;;;;29.13;17.40;;;;;;;24.91;59.50;95343.34;5125881;27;20041;-76
2023/06/24 05:06:23;;;;;;;26.75;16.95;;;;;;;24.86;58.96;95326.56;5131762;27;20576;-77
2023/06/24 05:08:49;;;;;;;30.08;16.40;;;;;;;24.96;58.87;95345.75;5127163;27;20425;-76
2023/06/24 05:11:14;;;;;;;23.42;17.38;;;;;;;24.98;58.96;95342.69;5141305;27;20054;-76
2023/06/24 05:13:40;;;;;;;21.40;16.33;;;;;;;25.02;58.75;95342.75;5123310;27;20077;-76
2023/06/24 05:16:05;;;;;;;27.67;16.50;;;;;;;24.94;58.93;95320.94;5132706;27;20035;-77
2023/06/24 05:18:30;;;;;;;25.52;16.20;;;;;;;25.11;59.11;95354.91;5136936;27;20035;-77
2023/06/24 05:20:56;;;;;;;27.05;15.82;;;;;;;25.14;59.04;95350.72;5144876;27;20023;-77
2023/06/24 05:23:21;;;;;;;22.35;16.48;;;;;;;25.05;58.63;95323.81;5114449;27;20142;-76
2023/06/24 05:25:47;;;;;;;23.38;15.18;;;;;;;25.05;58.17;95315.66;5118967;27;20404;-76
2023/06/24 05:28:12;;;;;;;20.52;14.18;;;;;;;24.84;57.80;95271.88;5141025;27;20536;-76
2023/06/24 05:30:38;;;;;;;18.30;14.25;;;;;;;25.24;57.27;95337.31;5123724;27;20030;-77
2023/06/24 05:33:03;;;;;;;22.00;12.90;;;;;;;25.21;57.11;95323.69;5125397;27;20050;-76
2023/06/24 05:35:29;;;;;;;21.60;13.70;;;;;;;25.40;56.88;95345.34;5126279;27;20038;-77
2023/06/24 05:37:54;;;;;;;22.45;12.57;;;;;;;25.26;57.07;95323.38;5146278;27;20022;-77
2023/06/24 05:40:20;;;;;;;18.20;11.93;;;;;;;25.47;56.61;95344.66;5128410;27;20039;-76
2023/06/24 05:42:45;;;;;;;19.13;12.52;;;;;;;25.27;56.80;95325.72;5129310;27;20019;-77
2023/06/24 05:45:11;;;;;;;18.55;12.35;;;;;;;25.24;56.49;95306.69;5148545;27;20105;-77
2023/06/24 05:47:37;;;;;;;20.02;12.98;;;;;;;25.55;56.30;95349.06;5152142;27;20031;-77
2023/06/24 05:50:03;;;;;;;17.10;13.40;;;;;;;25.60;56.28;95354.97;5133333;27;20027;-77
2023/06/24 05:52:29;;;;;;;21.90;13.68;;;;;;;25.57;56.11;95339.38;5114376;28;20091;-76
2023/06/24 05:54:54;;;;;;;21.60;14.82;;;;;;;25.64;56.38;95342.22;5112390;28;20616;-76
2023/06/24 05:57:20;;;;;;;19.58;14.75;;;;;;;25.33;57.30;95299.84;5112055;28;20038;-76
2023/06/24 05:59:45;;;;;;;21.00;14.90;;;;;;;25.54;57.64;95337.41;5142683;27;20042;-76
2023/06/24 06:02:11;;;;;;;20.55;15.55;;;;;;;25.28;57.00;95312.94;5136138;27;20110;-76
2023/06/24 06:04:38;;;;;;;21.73;13.85;;;;;;;25.43;57.03;95316.66;5133775;27;20419;-76
2023/06/24 06:07:03;;;;;;;22.20;14.63;;;;;;;25.44;57.03;95310.88;5122290;27;20041;-76
2023/06/24 06:09:29;;;;;;;25.20;14.65;;;;;;;25.47;57.02;95304.72;5142213;27;20193;-76
2023/06/24 06:11:54;;;;;;;18.85;13.88;;;;;;;25.64;56.76;95330.59;5128145;27;20050;-77
2023/06/24 06:14:20;;;;;;;20.80;15.10;;;;;;;25.61;56.76;95329.41;5099113;28;20463;-77
2023/06/24 06:16:45;;;;;;;19.15;15.60;;;;;;;25.65;56.74;95321.28;5117388;28;20028;-76
2023/06/24 06:19:11;;;;;;;18.27;13.75;;;;;;;25.51;55.32;95312.91;5102608;28;20034;-77
2023/06/24 06:21:37;;;;;;;22.25;13.43;;;;;;;25.38;54.85;95288.69;5113776;28;20083;-76
2023/06/24 06:24:03;;;;;;;18.20;14.80;;;;;;;25.72;54.97;95333.03;5093568;28;20184;-77
2023/06/24 06:26:28;;;;;;;23.15;14.55;;;;;;;25.45;55.47;95300.78;5109803;28;20059;-76
2023/06/24 06:28:54;;;;;;;16.80;13.57;;;;;;;25.60;55.61;95299.88;5106379;28;20046;-76
2023/06/24 06:31:21;;;;;;;19.95;12.90;;;;;;;25.57;55.31;95304.06;5092269;28;20450;-76
2023/06/24 06:33:47;;;;;;;14.57;12.77;;;;;;;25.81;55.54;95338.22;5112687;28;20031;-76
2023/06/24 06:36:13;;;;;;;16.52;13.00;;;;;;;25.55;55.54;95276.53;5107304;27;20377;-76
2023/06/24 06:38:39;;;;;;;18.95;12.85;;;;;;;25.88;54.86;95313.06;5118544;27;20079;-76
2023/06/24 06:41:04;;;;;;;18.05;11.93;;;;;;;25.94;54.42;95322.50;5105139;28;20108;-76
2023/06/24 06:43:29;;;;;;;17.20;14.07;;;;;;;25.88;54.71;95321.22;5111173;28;20028;-76
2023/06/24 06:45:56;;;;;;;23.45;12.98;;;;;;;25.89;55.04;95309.22;5102103;28;20038;-77
2023/06/24 06:48:21;;;;;;;24.73;12.45;;;;;;;26.07;55.06;95338.19;5119727;27;20118;-76
2023/06/24 06:50:47;;;;;;;20.90;13.48;;;;;;;25.68;54.82;95275.19;5107639;28;20066;-76
2023/06/24 06:53:12;;;;;;;17.92;13.07;;;;;;;26.10;54.69;95323.06;5116018;27;20035;-76
2023/06/24 06:55:39;;;;;;;18.15;13.85;;;;;;;26.29;54.36;95347.44;5096040;28;20031;-76
2023/06/24 06:58:05;;;;;;;16.25;11.93;;;;;;;26.24;54.90;95336.88;5127186;27;20803;-76
2023/06/24 07:00:30;;;;;;;21.10;11.75;;;;;;;26.35;53.96;95343.22;5101934;28;20028;-76
2023/06/24 07:02:56;;;;;;;28.35;12.38;;;;;;;26.34;53.93;95346.31;5107920;27;20054;-76
2023/06/24 07:05:21;;;;;;;14.15;12.57;;;;;;;26.20;53.72;95317.00;5111454;27;20039;-77
2023/06/24 07:07:49;;;;;;;17.48;14.02;;;;;;;26.14;53.58;95313.81;5128484;27;20113;-76
2023/06/24 07:10:16;;;;;;;24.17;12.88;;;;;;;26.33;53.54;95342.81;5126430;27;20031;-77
2023/06/24 07:12:42;;;;;;;18.98;13.35;;;;;;;26.06;53.75;95304.00;5095382;28;20071;-76
2023/06/24 07:15:08;;;;;;;21.02;13.07;;;;;;;26.17;54.37;95312.28;5102749;27;20058;-77
2023/06/24 07:17:33;;;;;;;19.13;13.23;;;;;;;26.16;54.53;95304.53;5094773;28;20040;-76
2023/06/24 07:19:59;;;;;;;18.35;13.80;;;;;;;26.21;55.63;95321.28;5099438;28;20023;-76
2023/06/24 07:22:24;;;;;;;16.48;13.10;;;;;;;26.35;55.24;95332.34;5111947;28;20093;-76
2023/06/24 07:24:50;;;;;;;15.38;13.63;;;;;;;26.39;55.38;95316.09;5108242;28;20035;-77
2023/06/24 07:27:15;;;;;;;17.63;13.48;;;;;;;26.58;54.79;95326.78;5116974;27;20106;-76
2023/06/24 07:29:41;;;;;;;16.85;12.68;;;;;;;26.66;54.46;95320.28;5114781;27;20039;-76
2023/06/24 07:32:07;;;;;;;19.00;13.40;;;;;;;26.78;54.75;95333.59;5096169;28;20470;-76
2023/06/24 07:34:33;;;;;;;16.50;14.07;;;;;;;26.25;55.02;95258.78;5117765;27;20039;-76
2023/06/24 07:36:58;;;;;;;20.58;13.45;;;;;;;25.15;54.32;95078.19;5131773;27;20083;-77
2023/06/24 07:39:24;;;;;;;15.68;12.85;;;;;;;26.58;54.09;95305.03;5124207;27;20031;-77
2023/06/24 07:41:49;;;;;;;15.38;11.80;;;;;;;26.82;53.62;95330.94;5109355;27;20039;-76
2023/06/24 07:44:15;;;;;;;19.83;13.05;;;;;;;26.33;54.55;95263.97;5119939;27;20160;-76
2023/06/24 07:46:41;;;;;;;15.55;12.98;;;;;;;26.56;54.05;95311.97;5105734;27;20027;-77
2023/06/24 07:49:06;;;;;;;15.63;12.45;;;;;;;26.63;53.81;95312.06;5121920;27;20019;-76
2023/06/24 07:51:31;;;;;;;16.42;12.00;;;;;;;26.42;53.86;95293.59;5099137;28;20107;-76
2023/06/24 07:53:57;;;;;;;19.13;12.75;;;;;;;26.62;53.56;95327.63;5099164;28;20062;-77
2023/06/24 07:56:22;;;;;;;14.00;12.50;;;;;;;26.62;53.71;95308.59;5114441;27;20045;-76
2023/06/24 07:58:48;;;;;;;16.38;11.68;;;;;;;26.94;54.03;95330.69;5097030;27;20462;-76
2023/06/24 08:01:13;;;;;;;15.65;12.52;;;;;;;27.04;54.20;95329.22;5095987;28;20027;-77
2023/06/24 08:03:39;;;;;;;17.02;12.70;;;;;;;26.97;53.55;95331.88;5106696;28;20423;-77
2023/06/24 08:06:04;;;;;;;19.85;13.10;;;;;;;27.10;54.52;95342.13;5106145;27;20023;-77
2023/06/24 08:08:30;;;;;;;18.38;14.57;;;;;;;26.67;54.69;95255.78;5110253;27;20039;-76
2023/06/24 08:10:55;;;;;;;19.55;12.85;;;;;;;26.90;53.91;95267.28;5129862;27;20104;-77
2023/06/24 08:13:21;;;;;;;17.35;12.43;;;;;;;27.21;52.52;95328.59;5122536;27;20035;-79
2023/06/24 08:15:46;;;;;;;14.60;12.98;;;;;;;27.01;53.49;95294.59;5123777;27;20027;-76
2023/06/24 08:18:12;;;;;;;15.88;12.05;;;;;;;27.18;53.40;95299.41;5135762;27;20385;-76
2023/06/24 08:20:37;;;;;;;14.32;12.70;;;;;;;26.96;53.00;95289.50;5142068;27;20105;-76
2023/06/24 08:23:03;;;;;;;15.57;12.57;;;;;;;27.27;53.46;95336.06;5105880;27;20031;-76
2023/06/24 08:25:28;;;;;;;17.55;12.70;;;;;;;27.46;52.95;95334.25;5131062;27;20031;-76
2023/06/24 08:27:54;;;;;;;16.08;12.93;;;;;;;27.33;52.70;95306.53;5128236;27;20495;-77
2023/06/24 08:30:19;;;;;;;14.30;12.77;;;;;;;27.40;52.34;95322.91;5132802;27;20023;-76
2023/06/24 08:32:44;;;;;;;15.48;12.25;;;;;;;27.47;51.17;95322.97;5130647;27;20027;-76
2023/06/24 08:35:10;;;;;;;19.30;12.73;;;;;;;27.24;51.47;95270.66;5138106;27;20042;-77
2023/06/24 08:37:36;;;;;;;15.55;12.48;;;;;;;27.50;50.68;95316.78;5115380;27;20035;-77
2023/06/24 08:40:04;;;;;;;18.52;12.68;;;;;;;27.54;50.74;95316.84;5129450;27;20034;-76
2023/06/24 08:42:30;;;;;;;16.60;13.23;;;;;;;27.47;50.99;95287.56;5132957;27;20053;-76
2023/06/24 08:44:55;;;;;;;17.65;12.15;;;;;;;27.65;51.30;95304.06;5110454;28;20043;-76
2023/06/24 08:47:23;;;;;;;18.85;13.38;;;;;;;27.72;50.48;95300.59;5115499;27;20211;-76
2023/06/24 08:49:56;;;;;;;13.00;11.52;;;;;;;27.73;50.61;95274.91;5117476;27;20031;-76
2023/06/24 08:52:26;;;;;;;18.00;11.98;;;;;;;27.97;52.33;95304.25;5142322;27;20059;-76
2023/06/24 08:54:54;;;;;;;14.20;11.63;;;;;;;27.83;52.09;95275.00;5130835;27;20027;-76
2023/06/24 08:57:20;;;;;;;16.08;12.18;;;;;;;28.02;51.06;95280.13;5136997;27;20041;-76
2023/06/24 08:59:45;;;;;;;18.88;12.70;;;;;;;28.11;51.25;95290.69;5127107;27;20114;-76
2023/06/24 09:02:11;;;;;;;14.23;11.73;;;;;;;28.22;51.16;95305.19;5132371;27;20038;-77
2023/06/24 09:04:36;;;;;;;21.95;11.82;;;;;;;28.21;49.50;95294.66;5124452;27;20027;-77
2023/06/24 09:07:03;;;;;;;21.10;11.60;;;;;;;28.31;49.17;95297.41;5095435;27;20035;-77
2023/06/24 09:09:28;;;;;;;13.95;11.93;;;;;;;28.34;49.42;95295.88;5152547;27;20440;-76
2023/06/24 09:12:01;;;;;;;20.20;12.48;;;;;;;28.36;51.13;95299.78;5112358;27;20088;-77
2023/06/24 09:14:29;;;;;;;17.05;12.32;;;;;;;28.36;49.70;95293.56;5098038;28;20040;-77
2023/06/24 09:16:56;;;;;;;14.35;11.30;;;;;;;28.17;50.72;95272.81;5111833;28;20534;-76
2023/06/24 09:19:29;;;;;;;18.48;12.18;;;;;;;28.39;51.14;95284.59;5092845;28;20031;-76
2023/06/24 09:22:00;;;;;;;19.48;11.85;;;;;;;28.37;50.08;95256.94;5093202;28;20043;-76
2023/06/24 09:24:37;;;;;;;19.52;12.30;;;;;;;28.41;49.03;95274.88;5108422;28;20064;-76
2023/06/24 09:27:03;;;;;;;19.05;12.55;;;;;;;28.50;48.52;95287.34;5105253;28;20430;-77
2023/06/24 09:29:32;;;;;;;18.38;11.32;;;;;;;28.41;49.46;95276.81;5092292;28;20063;-77
2023/06/24 09:32:01;;;;;;;19.98;11.63;;;;;;;28.56;49.50;95288.53;5108150;28;20190;-76
2023/06/24 09:34:28;;;;;;;17.13;12.38;;;;;;;28.53;49.47;95305.69;5109618;28;20073;-76
2023/06/24 09:36:57;;;;;;;15.30;12.45;;;;;;;28.45;48.80;95280.34;5109866;28;20035;-76
2023/06/24 09:39:30;;;;;;;19.67;12.00;;;;;;;28.80;48.18;95296.03;5107658;28;20035;-77
2023/06/24 09:41:56;;;;;;;17.67;12.25;;;;;;;28.73;48.37;95280.41;5092544;28;20076;-76
2023/06/24 09:44:23;;;;;;;19.50;11.98;;;;;;;28.90;48.11;95278.91;5111086;28;20044;-77
2023/06/24 09:46:49;;;;;;;18.15;11.55;;;;;;;29.74;46.90;95298.41;5092909;28;20038;-76
2023/06/24 09:49:15;;;;;;;19.67;11.85;;;;;;;30.50;45.13;95278.66;5092049;28;20028;-77
2023/06/24 09:51:45;;;;;;;13.73;10.85;;;;;;;31.52;43.19;95271.69;5093005;28;20055;-77
2023/06/24 09:54:12;;;;;;;18.63;10.20;;;;;;;32.62;42.49;95294.41;5092932;28;20086;-76
2023/06/24 09:56:45;;;;;;;12.77;10.00;;;;;;;33.23;40.76;95264.94;5092493;28;20055;-76
2023/06/24 09:59:12;;;;;;;15.98;9.60;;;;;;;34.07;36.92;95270.13;5092086;28;20034;-77
2023/06/24 10:01:44;;;;;;;14.00;9.90;;;;;;;34.70;36.46;95270.03;5110758;28;20067;-77
2023/06/24 10:04:17;;;;;;;14.02;10.40;;;;;;;35.41;34.75;95277.47;5093271;28;20135;-77
2023/06/24 10:06:43;;;;;;;11.50;9.23;;;;;;;35.78;35.05;95267.13;5108978;28;20031;-77
2023/06/24 10:09:08;;;;;;;13.55;9.30;;;;;;;36.39;33.94;95272.56;5109081;28;20038;-77
2023/06/24 10:11:34;;;;;;;11.70;8.80;;;;;;;36.76;32.43;95260.03;5109874;27;20043;-77
2023/06/24 10:14:00;;;;;;;10.07;8.70;;;;;;;37.32;31.43;95271.31;5113917;27;20047;-77
2023/06/24 10:16:26;;;;;;;13.88;9.07;;;;;;;37.10;32.82;95237.25;5116726;27;20031;-77
2023/06/24 10:18:51;;;;;;;12.25;9.63;;;;;;;37.63;31.91;95237.53;5139090;27;20070;-77
2023/06/24 10:21:17;;;;;;;12.15;8.23;;;;;;;38.04;29.38;95242.03;5110083;27;20035;-77
2023/06/24 10:23:55;;;;;;;9.60;8.00;;;;;;;38.41;31.06;95245.84;5106881;28;20034;-78
2023/06/24 10:26:28;;;;;;;9.65;8.20;;;;;;;38.27;31.50;95211.13;5125683;27;20090;-77
2023/06/24 10:29:06;;;;;;;13.07;8.10;;;;;;;38.90;30.60;95237.66;5124084;27;20497;-77
2023/06/24 10:31:40;;;;;;;12.05;8.60;;;;;;;38.82;29.43;95233.59;5124833;27;20039;-78
2023/06/24 10:34:28;;;;;;;13.80;8.65;;;;;;;38.67;29.54;95207.69;5122035;27;20039;-78
2023/06/24 10:37:04;;;;;;;10.75;8.50;;;;;;;39.03;29.31;95234.78;5134789;27;20043;-77
2023/06/24 10:39:54;;;;;;;8.93;8.00;;;;;;;38.86;27.53;95195.41;5121197;27;20031;-78
2023/06/24 10:42:41;;;;;;;9.05;8.15;;;;;;;39.18;28.14;95214.34;5119069;27;20031;-78
2023/06/24 10:45:09;;;;;;;15.00;8.38;;;;;;;38.89;27.74;95211.16;5112754;27;20042;-78
2023/06/24 10:47:53;;;;;;;10.40;7.70;;;;;;;39.03;29.71;95188.41;5125236;27;20042;-77
2023/06/24 10:50:20;;;;;;;19.65;8.18;;;;;;;39.20;28.50;95194.47;5115620;27;20047;-77
2023/06/24 10:52:55;;;;;;;11.23;7.35;;;;;;;38.94;28.44;95168.97;5119745;27;20031;-78
2023/06/24 10:55:23;;;;;;;8.30;7.15;;;;;;;39.03;28.46;95166.25;5105908;28;20062;-77
2023/06/24 10:57:49;;;;;;;8.43;7.63;;;;;;;38.97;27.50;95168.84;5135411;27;20034;-78
2023/06/24 11:00:15;;;;;;;11.93;7.47;;;;;;;39.16;26.69;95191.06;5122400;27;20549;-77
2023/06/24 11:02:41;;;;;;;12.45;7.15;;;;;;;38.80;27.66;95145.34;5127552;27;20050;-78
2023/06/24 11:05:07;;;;;;;19.60;8.10;;;;;;;39.01;26.55;95173.47;5128480;27;20027;-78
2023/06/24 11:07:37;;;;;;;11.48;8.30;;;;;;;39.34;26.10;95185.56;5138646;27;20042;-79
2023/06/24 11:10:10;;;;;;;11.73;6.82;;;;;;;39.16;24.96;95161.31;5116575;27;20476;-79
2023/06/24 11:12:38;;;;;;;9.50;6.70;;;;;;;38.95;28.09;95165.75;5096097;27;20138;-79
2023/06/24 11:15:08;;;;;;;11.60;6.82;;;;;;;39.32;25.97;95182.47;5148858;27;20374;-79
2023/06/24 11:17:34;;;;;;;7.72;6.50;;;;;;;39.27;27.11;95180.31;5151670;27;20062;-79
2023/06/24 11:20:00;;;;;;;11.25;6.40;;;;;;;39.66;26.58;95181.44;5124778;27;20066;-79